Time;durP1;ratioP1;P1;durP2;ratioP2;P2;SDS_P1;SDS_P2;PMS_P1;PMS_P2;Temp;Humidity;BMP_temperature;BMP_pressure;BME280_temperature;BME280_humidity;BME280_pressure;Samples;Min_cycle;Max_cycle;Signal;HPM_P1;HPM_P2
2023/05/03 00:01:42;;;;;;;7.67;4.57;;;;;;;;;;5106540;28;20224;-84
2023/05/03 00:04:12;;;;;;;8.93;4.57;;;;;;;;;;5114424;28;20228;-83
2023/05/03 00:06:40;;;;;;;4.73;4.27;;;;;;;;;;5113475;27;20651;-84
2023/05/03 00:09:09;;;;;;;9.80;4.70;;;;;;;;;;5112749;27;20298;-83
2023/05/03 00:11:36;;;;;;;6.33;4.57;;;;;;;;;;5094157;28;20228;-83
2023/05/03 00:14:03;;;;;;;7.47;4.50;;;;;;;;;;5103743;28;20662;-84
2023/05/03 00:16:30;;;;;;;7.03;4.77;;;;;;;;;;5111528;27;20736;-83
2023/05/03 00:18:58;;;;;;;6.50;4.70;;;;;;;;;;5114065;28;20211;-83
2023/05/03 00:21:27;;;;;;;9.10;4.50;;;;;;;;;;5113376;27;20231;-83
2023/05/03 00:23:54;;;;;;;6.27;4.60;;;;;;;;;;5113830;27;20224;-83
2023/05/03 00:26:22;;;;;;;11.03;4.70;;;;;;;;;;5102253;27;20631;-83
2023/05/03 00:28:49;;;;;;;13.23;5.50;;;;;;;;;;5094593;28;20205;-83
2023/05/03 00:31:16;;;;;;;9.50;4.73;;;;;;;;;;5094556;28;20244;-83
2023/05/03 00:33:43;;;;;;;6.30;4.30;;;;;;;;;;5093511;28;20229;-83
2023/05/03 00:36:11;;;;;;;8.77;4.60;;;;;;;;;;5092821;28;20626;-83
2023/05/03 00:38:39;;;;;;;6.37;4.43;;;;;;;;;;5097508;28;20192;-83
2023/05/03 00:41:06;;;;;;;8.83;4.73;;;;;;;;;;5113228;27;20246;-83
2023/05/03 00:43:36;;;;;;;7.13;4.30;;;;;;;;;;5113661;28;20228;-83
2023/05/03 00:46:04;;;;;;;8.00;4.50;;;;;;;;;;5113150;27;20240;-82
2023/05/03 00:48:31;;;;;;;8.13;4.37;;;;;;;;;;5113457;28;20256;-83
2023/05/03 00:50:58;;;;;;;8.50;5.30;;;;;;;;;;5107169;27;20233;-83
2023/05/03 00:53:26;;;;;;;10.30;5.33;;;;;;;;;;5096340;28;20213;-83
2023/05/03 00:55:55;;;;;;;7.83;4.83;;;;;;;;;;5092303;28;20642;-83
2023/05/03 00:58:23;;;;;;;6.47;4.87;;;;;;;;;;5094369;28;20212;-83
2023/05/03 01:00:50;;;;;;;8.37;4.77;;;;;;;;;;5112540;27;20227;-83
2023/05/03 01:03:17;;;;;;;8.23;5.00;;;;;;;;;;5103627;28;20227;-83
2023/05/03 01:05:49;;;;;;;6.50;4.97;;;;;;;;;;5092295;27;20236;-83
2023/05/03 01:08:21;;;;;;;10.10;5.20;;;;;;;;;;5092747;28;20211;-83
2023/05/03 01:10:52;;;;;;;5.77;5.10;;;;;;;;;;5092320;27;20670;-83
2023/05/03 01:13:23;;;;;;;6.20;4.97;;;;;;;;;;5091776;28;20205;-83
2023/05/03 01:15:54;;;;;;;7.13;5.00;;;;;;;;;;5092524;27;20289;-83
2023/05/03 01:18:24;;;;;;;8.67;5.67;;;;;;;;;;5092874;28;20211;-83
2023/05/03 01:20:52;;;;;;;6.67;5.10;;;;;;;;;;5100939;27;20220;-83
2023/05/03 01:23:25;;;;;;;10.77;5.20;;;;;;;;;;5112896;28;20235;-83
2023/05/03 01:25:54;;;;;;;9.03;5.03;;;;;;;;;;5112323;27;20244;-83
2023/05/03 01:28:21;;;;;;;9.87;5.07;;;;;;;;;;5112872;28;20204;-83
2023/05/03 01:30:49;;;;;;;7.00;5.10;;;;;;;;;;5112241;27;20259;-83
2023/05/03 01:33:21;;;;;;;8.97;5.10;;;;;;;;;;5112393;28;20580;-82
2023/05/03 01:35:53;;;;;;;9.60;4.60;;;;;;;;;;5112235;27;20254;-83
2023/05/03 01:38:21;;;;;;;6.67;5.17;;;;;;;;;;5109014;28;20181;-83
2023/05/03 01:40:50;;;;;;;8.23;6.23;;;;;;;;;;5092400;28;20232;-83
2023/05/03 01:43:19;;;;;;;8.03;4.83;;;;;;;;;;5112101;28;20689;-83
2023/05/03 01:45:46;;;;;;;6.87;5.23;;;;;;;;;;5112099;27;20232;-83
2023/05/03 01:48:15;;;;;;;5.67;5.00;;;;;;;;;;5106771;28;20710;-83
2023/05/03 01:50:42;;;;;;;7.33;5.20;;;;;;;;;;5112136;27;20236;-83
2023/05/03 01:53:09;;;;;;;9.53;5.70;;;;;;;;;;5111265;28;20196;-83
2023/05/03 01:55:36;;;;;;;7.70;6.00;;;;;;;;;;5112070;27;20242;-83
2023/05/03 01:58:05;;;;;;;5.97;5.17;;;;;;;;;;5111666;28;20203;-83
2023/05/03 02:00:33;;;;;;;5.73;5.07;;;;;;;;;;5091430;28;20260;-83
2023/05/03 02:03:00;;;;;;;9.63;5.77;;;;;;;;;;5101094;28;20220;-83
2023/05/03 02:05:27;;;;;;;10.47;5.47;;;;;;;;;;5098422;28;20236;-83
2023/05/03 02:07:54;;;;;;;10.57;5.30;;;;;;;;;;5092398;28;20216;-83
2023/05/03 02:10:21;;;;;;;6.10;5.50;;;;;;;;;;5111845;27;20239;-82
2023/05/03 02:12:48;;;;;;;8.73;5.20;;;;;;;;;;5111516;28;20211;-82
2023/05/03 02:15:18;;;;;;;9.90;6.00;;;;;;;;;;5100123;27;20247;-83
2023/05/03 02:17:48;;;;;;;8.60;4.80;;;;;;;;;;5096120;28;20764;-83
2023/05/03 02:20:15;;;;;;;12.00;6.33;;;;;;;;;;5111058;27;20235;-82
2023/05/03 02:22:42;;;;;;;10.50;6.23;;;;;;;;;;5104352;28;20841;-83
2023/05/03 02:25:09;;;;;;;8.20;5.13;;;;;;;;;;5093842;28;20236;-83
2023/05/03 02:27:36;;;;;;;11.87;5.87;;;;;;;;;;5099041;28;20208;-83
2023/05/03 02:30:04;;;;;;;7.30;5.77;;;;;;;;;;5108366;28;20236;-83
2023/05/03 02:32:31;;;;;;;8.63;6.17;;;;;;;;;;5115996;28;20196;-83
2023/05/03 02:34:59;;;;;;;8.33;5.43;;;;;;;;;;5115785;27;20234;-82
2023/05/03 02:37:26;;;;;;;6.20;5.50;;;;;;;;;;5115968;28;20632;-83
2023/05/03 02:39:53;;;;;;;5.47;4.83;;;;;;;;;;5115488;27;20590;-83
2023/05/03 02:42:20;;;;;;;6.83;5.73;;;;;;;;;;5116049;28;20554;-83
2023/05/03 02:44:47;;;;;;;6.40;5.30;;;;;;;;;;5100349;27;20319;-83
2023/05/03 02:47:14;;;;;;;8.80;5.47;;;;;;;;;;5111616;28;20224;-83
2023/05/03 02:49:42;;;;;;;6.77;5.43;;;;;;;;;;5107061;27;20200;-83
2023/05/03 02:52:10;;;;;;;6.73;5.67;;;;;;;;;;5115323;27;20211;-83
2023/05/03 02:54:37;;;;;;;6.67;4.87;;;;;;;;;;5108677;28;20197;-83
2023/05/03 02:57:04;;;;;;;5.83;5.27;;;;;;;;;;5098903;28;20231;-83
2023/05/03 02:59:32;;;;;;;6.13;4.70;;;;;;;;;;5094938;28;20203;-83
2023/05/03 03:01:59;;;;;;;9.57;5.13;;;;;;;;;;5109465;28;20249;-83
2023/05/03 03:04:26;;;;;;;7.50;5.33;;;;;;;;;;5114864;27;20301;-83
2023/05/03 03:06:53;;;;;;;10.10;5.90;;;;;;;;;;5115574;27;20313;-83
2023/05/03 03:09:21;;;;;;;9.07;5.53;;;;;;;;;;5115554;28;20203;-83
2023/05/03 03:11:49;;;;;;;6.87;5.37;;;;;;;;;;5114892;27;20241;-83
2023/05/03 03:14:16;;;;;;;5.87;4.97;;;;;;;;;;5115251;28;20703;-83
2023/05/03 03:16:43;;;;;;;6.27;4.63;;;;;;;;;;5113019;27;20243;-86
2023/05/03 03:19:10;;;;;;;9.03;5.00;;;;;;;;;;5094886;28;20207;-85
2023/05/03 03:21:37;;;;;;;7.60;5.60;;;;;;;;;;5094550;27;20235;-85
2023/05/03 03:24:04;;;;;;;6.80;5.63;;;;;;;;;;5094769;28;20238;-86
2023/05/03 03:26:32;;;;;;;5.83;5.23;;;;;;;;;;5112220;27;20242;-86
2023/05/03 03:28:59;;;;;;;7.67;4.97;;;;;;;;;;5115040;27;20215;-86
2023/05/03 03:31:26;;;;;;;9.03;5.17;;;;;;;;;;5113976;27;20230;-85
2023/05/03 03:33:53;;;;;;;6.93;5.60;;;;;;;;;;5114957;28;20203;-86
2023/05/03 03:36:20;;;;;;;10.07;6.30;;;;;;;;;;5113655;27;20327;-85
2023/05/03 03:38:47;;;;;;;8.70;6.07;;;;;;;;;;5115166;28;20214;-85
2023/05/03 03:41:14;;;;;;;9.53;6.20;;;;;;;;;;5114455;27;20722;-86
2023/05/03 03:43:43;;;;;;;9.80;5.77;;;;;;;;;;5114795;28;20254;-86
2023/05/03 03:46:10;;;;;;;7.17;6.10;;;;;;;;;;5114372;27;20239;-85
2023/05/03 03:48:37;;;;;;;9.37;5.97;;;;;;;;;;5114939;28;20337;-85
2023/05/03 03:51:04;;;;;;;11.53;5.93;;;;;;;;;;5114136;27;20326;-86
2023/05/03 03:53:31;;;;;;;6.93;5.60;;;;;;;;;;5114555;28;20679;-85
2023/05/03 03:55:58;;;;;;;10.70;5.73;;;;;;;;;;5114201;27;20241;-86
2023/05/03 03:58:25;;;;;;;13.13;6.47;;;;;;;;;;5114694;28;20208;-86
2023/05/03 04:00:54;;;;;;;8.57;5.67;;;;;;;;;;5114051;27;20241;-86
2023/05/03 04:03:21;;;;;;;9.37;5.57;;;;;;;;;;5114663;28;20228;-85
2023/05/03 04:05:48;;;;;;;8.47;6.07;;;;;;;;;;5113792;27;20246;-86
2023/05/03 04:08:15;;;;;;;9.30;5.87;;;;;;;;;;5114621;28;20210;-85
2023/05/03 04:10:42;;;;;;;8.83;5.73;;;;;;;;;;5113928;27;20665;-85
2023/05/03 04:13:09;;;;;;;10.90;5.80;;;;;;;;;;5114336;28;20241;-85
2023/05/03 04:15:36;;;;;;;7.53;6.20;;;;;;;;;;5113625;27;20635;-85
2023/05/03 04:18:04;;;;;;;9.17;6.27;;;;;;;;;;5114171;28;20207;-85
2023/05/03 04:20:32;;;;;;;9.93;5.90;;;;;;;;;;5113577;27;20651;-85
2023/05/03 04:23:00;;;;;;;11.67;7.30;;;;;;;;;;5114200;28;20212;-87
2023/05/03 04:25:27;;;;;;;10.33;5.90;;;;;;;;;;5113582;27;20260;-87
2023/05/03 04:27:54;;;;;;;7.87;6.33;;;;;;;;;;5114581;28;20211;-87
2023/05/03 04:30:22;;;;;;;8.07;5.97;;;;;;;;;;5113171;27;20783;-87
2023/05/03 04:32:49;;;;;;;11.80;6.77;;;;;;;;;;5113947;28;20240;-86
2023/05/03 04:35:17;;;;;;;12.10;6.13;;;;;;;;;;5113028;27;20238;-88
2023/05/03 04:37:44;;;;;;;13.63;6.70;;;;;;;;;;5114120;28;20210;-87
2023/05/03 04:40:12;;;;;;;12.70;6.50;;;;;;;;;;5113396;27;20643;-87
2023/05/03 04:42:39;;;;;;;9.10;6.50;;;;;;;;;;5113635;27;20211;-87
2023/05/03 04:45:08;;;;;;;11.17;7.27;;;;;;;;;;5113296;27;20239;-86
2023/05/03 04:47:35;;;;;;;13.97;6.30;;;;;;;;;;5113866;28;20208;-86
2023/05/03 04:50:02;;;;;;;11.80;6.43;;;;;;;;;;5113388;27;20225;-86
2023/05/03 04:52:30;;;;;;;10.13;6.60;;;;;;;;;;5120105;28;20201;-87
2023/05/03 04:54:57;;;;;;;7.90;6.27;;;;;;;;;;5114368;27;20232;-86
2023/05/03 04:57:24;;;;;;;7.10;6.30;;;;;;;;;;5114480;28;20204;-87
2023/05/03 04:59:52;;;;;;;10.83;7.00;;;;;;;;;;5113668;27;20231;-87
2023/05/03 05:02:20;;;;;;;7.73;6.50;;;;;;;;;;5113463;28;20211;-87
2023/05/03 05:04:47;;;;;;;8.53;6.67;;;;;;;;;;5112934;27;20233;-85
2023/05/03 05:07:14;;;;;;;10.43;6.70;;;;;;;;;;5113141;28;20730;-85
2023/05/03 05:09:42;;;;;;;12.37;7.40;;;;;;;;;;5112575;27;20204;-85
2023/05/03 05:12:10;;;;;;;12.43;7.00;;;;;;;;;;5112899;28;20666;-85
2023/05/03 05:14:37;;;;;;;10.50;7.13;;;;;;;;;;5112804;27;20198;-85
2023/05/03 05:17:04;;;;;;;14.27;7.37;;;;;;;;;;5113191;28;20232;-85
2023/05/03 05:19:31;;;;;;;11.93;7.60;;;;;;;;;;5112476;27;20835;-84
2023/05/03 05:21:58;;;;;;;13.07;7.40;;;;;;;;;;5113156;28;20205;-85
2023/05/03 05:24:25;;;;;;;9.80;7.60;;;;;;;;;;5112658;27;20232;-84
2023/05/03 05:26:53;;;;;;;11.33;8.03;;;;;;;;;;5112806;28;20231;-85
2023/05/03 05:29:20;;;;;;;16.13;9.40;;;;;;;;;;5112796;28;20234;-85
2023/05/03 05:31:47;;;;;;;16.73;8.60;;;;;;;;;;5112204;27;20244;-85
2023/05/03 05:34:14;;;;;;;9.43;7.67;;;;;;;;;;5112638;28;20211;-85
2023/05/03 05:36:41;;;;;;;11.17;8.13;;;;;;;;;;5112166;27;20244;-85
2023/05/03 05:39:09;;;;;;;13.23;9.57;;;;;;;;;;5112738;28;20196;-85
2023/05/03 05:41:36;;;;;;;18.10;8.73;;;;;;;;;;5111997;27;20266;-85
2023/05/03 05:44:04;;;;;;;15.83;8.43;;;;;;;;;;5112500;28;20226;-85
2023/05/03 05:46:31;;;;;;;15.33;9.13;;;;;;;;;;5112085;27;20236;-84
2023/05/03 05:48:58;;;;;;;11.30;8.83;;;;;;;;;;5112795;28;20218;-85
2023/05/03 05:51:26;;;;;;;13.40;8.40;;;;;;;;;;5111920;27;20582;-85
2023/05/03 05:53:53;;;;;;;10.87;7.67;;;;;;;;;;5112509;28;20204;-85
2023/05/03 05:56:20;;;;;;;15.03;7.80;;;;;;;;;;5112068;27;20285;-85
2023/05/03 05:58:47;;;;;;;11.47;8.10;;;;;;;;;;5112366;28;20263;-85
2023/05/03 06:01:16;;;;;;;13.43;7.63;;;;;;;;;;5111787;27;20593;-85
2023/05/03 06:03:43;;;;;;;11.97;7.20;;;;;;;;;;5112520;28;20290;-85
2023/05/03 06:06:10;;;;;;;12.60;7.87;;;;;;;;;;5111704;27;20644;-85
2023/05/03 06:08:37;;;;;;;11.57;7.00;;;;;;;;;;5112427;28;20673;-85
2023/05/03 06:11:04;;;;;;;14.27;7.77;;;;;;;;;;5112035;27;20240;-85
2023/05/03 06:13:33;;;;;;;20.53;7.87;;;;;;;;;;5112496;28;20215;-85
2023/05/03 06:16:01;;;;;;;9.83;7.47;;;;;;;;;;5111751;27;20257;-85
2023/05/03 06:18:29;;;;;;;11.03;7.30;;;;;;;;;;5112484;28;20274;-85
2023/05/03 06:20:57;;;;;;;8.80;6.80;;;;;;;;;;5111928;27;20238;-85
2023/05/03 06:23:26;;;;;;;10.90;6.83;;;;;;;;;;5112450;28;20204;-85
2023/05/03 06:25:53;;;;;;;8.67;6.50;;;;;;;;;;5111611;27;20232;-86
2023/05/03 06:28:20;;;;;;;10.70;5.83;;;;;;;;;;5112590;28;20212;-86
2023/05/03 06:30:49;;;;;;;10.17;6.23;;;;;;;;;;5111860;27;20264;-86
2023/05/03 06:33:16;;;;;;;9.27;5.80;;;;;;;;;;5112142;28;20204;-85
2023/05/03 06:35:46;;;;;;;8.53;6.47;;;;;;;;;;5111732;27;20242;-85
2023/05/03 06:38:13;;;;;;;7.17;6.23;;;;;;;;;;5112303;28;20295;-85
2023/05/03 06:40:41;;;;;;;12.37;6.27;;;;;;;;;;5111784;27;20623;-85
2023/05/03 06:43:08;;;;;;;8.20;5.87;;;;;;;;;;5112402;28;20253;-85
2023/05/03 06:45:35;;;;;;;6.97;5.70;;;;;;;;;;5111581;27;20567;-86
2023/05/03 06:48:02;;;;;;;10.53;6.33;;;;;;;;;;5112085;28;20675;-85
2023/05/03 06:50:29;;;;;;;8.30;5.40;;;;;;;;;;5111360;27;20239;-86
2023/05/03 06:52:57;;;;;;;6.60;5.07;;;;;;;;;;5111977;28;20261;-86
2023/05/03 06:55:25;;;;;;;7.57;4.73;;;;;;;;;;5111473;27;20617;-85
2023/05/03 06:57:52;;;;;;;5.93;4.53;;;;;;;;;;5111950;28;20196;-85
2023/05/03 07:00:20;;;;;;;11.53;4.97;;;;;;;;;;5111520;27;20243;-85
2023/05/03 07:02:47;;;;;;;5.20;4.70;;;;;;;;;;5111945;28;20231;-86
2023/05/03 07:05:15;;;;;;;7.53;4.83;;;;;;;;;;5111232;27;20232;-86
2023/05/03 07:07:42;;;;;;;9.40;5.70;;;;;;;;;;5112078;28;20211;-85
2023/05/03 07:10:11;;;;;;;7.33;4.83;;;;;;;;;;5111589;27;20251;-85
2023/05/03 07:12:38;;;;;;;7.03;4.87;;;;;;;;;;5114483;28;20734;-86
2023/05/03 07:15:05;;;;;;;8.90;4.77;;;;;;;;;;5115174;27;20322;-86
2023/05/03 07:17:32;;;;;;;5.47;4.20;;;;;;;;;;5115315;27;20250;-85
2023/05/03 07:19:59;;;;;;;5.77;4.73;;;;;;;;;;5114957;27;20235;-86
2023/05/03 07:22:27;;;;;;;5.57;4.77;;;;;;;;;;5115406;28;20208;-85
2023/05/03 07:24:56;;;;;;;8.40;4.40;;;;;;;;;;5114853;27;20236;-86
2023/05/03 07:27:24;;;;;;;6.50;4.30;;;;;;;;;;5115377;28;20230;-86
2023/05/03 07:29:51;;;;;;;4.90;4.13;;;;;;;;;;5114885;27;20289;-86
2023/05/03 07:32:18;;;;;;;8.87;4.30;;;;;;;;;;5115260;27;20200;-85
2023/05/03 07:34:45;;;;;;;7.37;4.10;;;;;;;;;;5114970;27;20231;-86
2023/05/03 07:37:13;;;;;;;7.80;4.67;;;;;;;;;;5115207;28;20227;-86
2023/05/03 07:39:40;;;;;;;8.27;4.37;;;;;;;;;;5114551;27;20208;-85
2023/05/03 07:42:07;;;;;;;6.37;3.87;;;;;;;;;;5115078;28;20257;-85
2023/05/03 07:44:36;;;;;;;8.10;4.00;;;;;;;;;;5114865;27;20207;-86
2023/05/03 07:47:03;;;;;;;7.80;4.87;;;;;;;;;;5114928;28;20224;-85
2023/05/03 07:49:34;;;;;;;4.73;3.90;;;;;;;;;;5114583;27;20208;-85
2023/05/03 07:52:01;;;;;;;7.63;4.37;;;;;;;;;;5114753;27;20353;-86
2023/05/03 07:54:28;;;;;;;6.37;4.07;;;;;;;;;;5114477;27;20199;-86
2023/05/03 07:56:55;;;;;;;5.77;4.13;;;;;;;;;;5114891;28;20231;-86
2023/05/03 07:59:22;;;;;;;5.80;3.90;;;;;;;;;;5114880;28;20200;-85
2023/05/03 08:01:51;;;;;;;9.10;4.30;;;;;;;;;;5114089;27;20228;-84
2023/05/03 08:04:18;;;;;;;6.00;4.17;;;;;;;;;;5114906;28;20208;-85
2023/05/03 08:06:45;;;;;;;5.37;3.70;;;;;;;;;;5115406;27;20240;-85
2023/05/03 08:09:12;;;;;;;5.23;3.77;;;;;;;;;;5115408;28;20204;-86
2023/05/03 08:11:39;;;;;;;5.03;4.47;;;;;;;;;;5114784;27;20247;-86
2023/05/03 08:14:06;;;;;;;5.37;4.00;;;;;;;;;;5114855;28;20208;-86
2023/05/03 08:16:33;;;;;;;9.27;3.83;;;;;;;;;;5113993;27;20238;-86
2023/05/03 08:19:03;;;;;;;8.93;4.17;;;;;;;;;;5114286;28;20208;-86
2023/05/03 08:21:32;;;;;;;7.23;4.10;;;;;;;;;;5114102;28;20236;-86
2023/05/03 08:23:59;;;;;;;4.60;3.80;;;;;;;;;;5113929;28;20204;-86
2023/05/03 08:26:27;;;;;;;4.60;3.93;;;;;;;;;;5113661;27;20279;-86
2023/05/03 08:28:54;;;;;;;6.97;4.20;;;;;;;;;;5114299;28;20328;-86
2023/05/03 08:31:21;;;;;;;5.17;4.13;;;;;;;;;;5113886;27;20297;-86
2023/05/03 08:33:48;;;;;;;8.97;4.33;;;;;;;;;;5114048;28;20214;-87
2023/05/03 08:36:17;;;;;;;5.13;3.90;;;;;;;;;;5113350;27;20693;-86
2023/05/03 08:38:44;;;;;;;6.63;4.37;;;;;;;;;;5114106;28;20210;-86
2023/05/03 08:41:15;;;;;;;7.40;4.50;;;;;;;;;;5113582;27;20228;-86
2023/05/03 08:43:44;;;;;;;5.97;4.27;;;;;;;;;;5113998;28;20234;-86
2023/05/03 08:46:12;;;;;;;6.73;4.10;;;;;;;;;;5113181;28;20243;-86
2023/05/03 08:48:39;;;;;;;7.60;4.20;;;;;;;;;;5113736;28;20654;-86
2023/05/03 08:51:09;;;;;;;6.85;4.32;;;;;;;;;;5112774;27;20743;-86
2023/05/03 08:53:37;;;;;;;6.68;4.45;;;;;;;;;;5113857;28;20204;-86
2023/05/03 08:56:08;;;;;;;5.40;4.03;;;;;;;;;;5112886;28;20376;-86
2023/05/03 08:58:36;;;;;;;6.22;3.75;;;;;;;;;;5113272;28;20208;-86
2023/05/03 09:01:06;;;;;;;6.18;4.07;;;;;;;;;;5112842;28;20713;-85
2023/05/03 09:03:34;;;;;;;4.90;3.80;;;;;;;;;;5113311;28;20689;-86
2023/05/03 09:06:01;;;;;;;5.32;4.78;;;;;;;;;;5112619;28;20247;-86
2023/05/03 09:08:29;;;;;;;7.63;3.90;;;;;;;;;;5113423;28;20208;-86
2023/05/03 09:10:57;;;;;;;7.60;4.10;;;;;;;;;;5112888;28;20253;-87
2023/05/03 09:13:30;;;;;;;7.65;3.97;;;;;;;;;;5113212;28;20204;-86
2023/05/03 09:15:58;;;;;;;6.88;4.10;;;;;;;;;;5112958;28;20236;-89
2023/05/03 09:18:25;;;;;;;6.22;4.07;;;;;;;;;;5113372;28;20196;-87
2023/05/03 09:20:53;;;;;;;5.47;4.53;;;;;;;;;;5112700;28;20276;-88
2023/05/03 09:23:29;;;;;;;8.05;4.10;;;;;;;;;;5113135;28;20207;-88
2023/05/03 09:25:58;;;;;;;5.78;4.10;;;;;;;;;;5112631;28;20235;-88
2023/05/03 09:28:26;;;;;;;5.05;3.72;;;;;;;;;;5112869;28;20235;-87
2023/05/03 09:31:06;;;;;;;6.72;4.13;;;;;;;;;;5112579;28;20288;-86
2023/05/03 09:33:33;;;;;;;4.63;3.90;;;;;;;;;;5112503;28;20241;-88
2023/05/03 09:36:01;;;;;;;4.90;3.60;;;;;;;;;;5112209;28;20232;-89
2023/05/03 09:38:29;;;;;;;6.43;4.55;;;;;;;;;;5113037;28;20215;-89
2023/05/03 09:40:57;;;;;;;6.57;4.13;;;;;;;;;;5112354;28;20686;-89
2023/05/03 09:43:25;;;;;;;5.43;3.65;;;;;;;;;;5113010;28;20208;-89
2023/05/03 09:45:52;;;;;;;5.65;3.05;;;;;;;;;;5112163;28;20236;-89
2023/05/03 09:48:22;;;;;;;5.78;4.07;;;;;;;;;;5113255;28;20200;-89
2023/05/03 09:50:50;;;;;;;7.03;4.32;;;;;;;;;;5113923;28;20228;-88
2023/05/03 09:53:17;;;;;;;7.57;4.43;;;;;;;;;;5113107;28;20253;-88
2023/05/03 09:55:46;;;;;;;7.85;4.10;;;;;;;;;;5112915;28;20253;-88
2023/05/03 09:58:16;;;;;;;5.22;4.18;;;;;;;;;;5112864;28;20204;-89
2023/05/03 10:00:46;;;;;;;7.65;4.30;;;;;;;;;;5111860;27;20235;-89
2023/05/03 10:03:18;;;;;;;5.13;3.85;;;;;;;;;;5112960;28;20328;-89
2023/05/03 10:05:47;;;;;;;6.82;4.13;;;;;;;;;;5111972;27;20709;-88
2023/05/03 10:08:23;;;;;;;4.22;3.70;;;;;;;;;;5112882;28;20210;-88
2023/05/03 10:10:53;;;;;;;6.22;5.07;;;;;;;;;;5112378;27;20231;-88
2023/05/03 10:13:21;;;;;;;5.80;4.18;;;;;;;;;;5112913;28;20204;-89
2023/05/03 10:15:50;;;;;;;6.50;4.18;;;;;;;;;;5112067;27;20232;-89
2023/05/03 10:18:17;;;;;;;6.88;4.35;;;;;;;;;;5112380;28;20200;-89
2023/05/03 10:20:46;;;;;;;5.57;4.10;;;;;;;;;;5112215;27;20235;-88
2023/05/03 10:23:14;;;;;;;6.38;4.40;;;;;;;;;;5112557;28;20211;-88
2023/05/03 10:26:01;;;;;;;5.05;4.30;;;;;;;;;;5112188;27;20314;-88
2023/05/03 10:28:30;;;;;;;5.10;3.92;;;;;;;;;;5112940;28;20261;-89
2023/05/03 10:30:57;;;;;;;7.15;4.38;;;;;;;;;;5113132;27;20705;-89
2023/05/03 10:33:31;;;;;;;6.53;4.05;;;;;;;;;;5112282;28;20192;-89
2023/05/03 10:36:00;;;;;;;6.00;3.80;;;;;;;;;;5111835;27;20226;-89
2023/05/03 10:38:27;;;;;;;6.95;4.00;;;;;;;;;;5112988;28;20257;-89
2023/05/03 10:40:55;;;;;;;6.15;4.25;;;;;;;;;;5111871;27;20251;-90
2023/05/03 10:43:41;;;;;;;5.68;4.60;;;;;;;;;;5112582;28;20196;-89
2023/05/03 10:46:10;;;;;;;6.07;4.10;;;;;;;;;;5114153;27;20235;-89
2023/05/03 10:48:37;;;;;;;7.18;4.45;;;;;;;;;;5116779;28;20208;-89
2023/05/03 10:51:19;;;;;;;4.97;3.90;;;;;;;;;;5115575;27;20608;-89
2023/05/03 10:53:48;;;;;;;6.90;4.22;;;;;;;;;;5116041;28;20216;-90
2023/05/03 10:56:15;;;;;;;5.63;4.85;;;;;;;;;;5118668;27;20363;-89
2023/05/03 10:58:43;;;;;;;8.25;4.70;;;;;;;;;;5118401;28;20218;-90
2023/05/03 11:01:12;;;;;;;7.63;3.72;;;;;;;;;;5116592;27;20238;-90
2023/05/03 11:03:50;;;;;;;4.32;3.53;;;;;;;;;;5115937;28;20616;-89
2023/05/03 11:06:31;;;;;;;6.35;3.40;;;;;;;;;;5115185;27;20251;-89
2023/05/03 11:08:58;;;;;;;5.38;4.00;;;;;;;;;;5116135;28;20716;-89
2023/05/03 11:11:26;;;;;;;6.45;3.67;;;;;;;;;;5115675;28;20231;-89
2023/05/03 11:13:53;;;;;;;4.85;3.45;;;;;;;;;;5116334;28;20208;-90
2023/05/03 11:16:21;;;;;;;5.15;4.40;;;;;;;;;;5115037;27;20239;-89
2023/05/03 11:18:48;;;;;;;3.90;3.45;;;;;;;;;;5115936;28;20227;-90
2023/05/03 11:21:16;;;;;;;5.45;4.15;;;;;;;;;;5115476;27;20259;-90
2023/05/03 11:23:43;;;;;;;5.00;3.72;;;;;;;;;;5116806;28;20210;-90
2023/05/03 11:26:11;;;;;;;4.57;3.75;;;;;;;;;;5115400;27;20239;-89
2023/05/03 11:28:39;;;;;;;8.45;4.10;;;;;;;;;;5115787;28;20204;-90
2023/05/03 11:31:06;;;;;;;5.30;3.60;;;;;;;;;;5115338;27;20236;-91
2023/05/03 11:33:35;;;;;;;5.25;3.35;;;;;;;;;;5115951;28;20211;-90
2023/05/03 11:36:03;;;;;;;7.68;3.08;;;;;;;;;;5116114;27;20236;-91
2023/05/03 11:38:31;;;;;;;3.58;3.28;;;;;;;;;;5115865;28;20232;-89
2023/05/03 11:40:58;;;;;;;4.18;3.33;;;;;;;;;;5116129;27;20228;-91
2023/05/03 11:43:25;;;;;;;4.10;3.60;;;;;;;;;;5115341;28;20192;-89
2023/05/03 11:45:55;;;;;;;4.00;3.40;;;;;;;;;;5115197;27;20236;-90
2023/05/03 11:48:22;;;;;;;5.00;3.17;;;;;;;;;;5117183;28;20294;-90
2023/05/03 11:50:54;;;;;;;4.63;3.60;;;;;;;;;;5116044;27;20250;-90
2023/05/03 11:53:21;;;;;;;4.18;3.78;;;;;;;;;;5115516;28;20208;-90
2023/05/03 11:55:49;;;;;;;6.93;3.78;;;;;;;;;;5114423;28;20697;-91
2023/05/03 11:58:17;;;;;;;5.47;3.42;;;;;;;;;;5114670;28;20208;-90
2023/05/03 12:00:45;;;;;;;4.00;2.78;;;;;;;;;;5115297;27;20709;-91
2023/05/03 12:03:16;;;;;;;4.45;2.90;;;;;;;;;;5116071;28;20216;-90
2023/05/03 12:05:43;;;;;;;5.65;2.70;;;;;;;;;;5114993;27;20243;-90
2023/05/03 12:08:12;;;;;;;3.25;2.55;;;;;;;;;;5115317;28;20669;-92
2023/05/03 12:10:39;;;;;;;3.03;2.15;;;;;;;;;;5114876;27;20236;-91
2023/05/03 12:13:06;;;;;;;2.53;2.15;;;;;;;;;;5116612;28;20200;-92
2023/05/03 12:15:34;;;;;;;3.38;2.50;;;;;;;;;;5114350;27;20239;-91
2023/05/03 12:18:01;;;;;;;3.60;2.55;;;;;;;;;;5114665;28;20200;-91
2023/05/03 12:20:30;;;;;;;4.35;3.00;;;;;;;;;;5114108;27;20233;-91
2023/05/03 12:22:58;;;;;;;3.05;2.60;;;;;;;;;;5114833;28;20200;-91
2023/05/03 12:25:27;;;;;;;3.22;2.67;;;;;;;;;;5114421;27;20236;-90
2023/05/03 12:27:54;;;;;;;5.45;3.08;;;;;;;;;;5114912;28;20651;-91
2023/05/03 12:30:21;;;;;;;3.63;2.72;;;;;;;;;;5114453;27;20288;-89
2023/05/03 12:32:49;;;;;;;3.25;2.58;;;;;;;;;;5115381;28;20229;-92
2023/05/03 12:35:17;;;;;;;4.00;2.72;;;;;;;;;;5114649;27;20315;-92
2023/05/03 12:37:48;;;;;;;2.90;2.40;;;;;;;;;;5115644;28;20200;-92
2023/05/03 12:40:15;;;;;;;2.50;2.10;;;;;;;;;;5114367;27;20236;-91
2023/05/03 12:42:44;;;;;;;3.75;2.50;;;;;;;;;;5114656;28;20226;-91
2023/05/03 12:45:12;;;;;;;3.45;2.28;;;;;;;;;;5113798;27;20782;-91
2023/05/03 12:47:39;;;;;;;4.47;2.30;;;;;;;;;;5114698;28;20755;-91
2023/05/03 12:50:08;;;;;;;4.20;2.40;;;;;;;;;;5114219;27;20246;-92
2023/05/03 12:52:35;;;;;;;3.22;2.10;;;;;;;;;;5114535;28;20287;-90
2023/05/03 12:55:03;;;;;;;2.20;2.00;;;;;;;;;;5113845;27;20232;-91
2023/05/03 12:57:31;;;;;;;2.25;2.00;;;;;;;;;;5114337;28;20226;-91
2023/05/03 12:59:59;;;;;;;3.17;2.30;;;;;;;;;;5113321;27;20227;-90
2023/05/03 13:02:26;;;;;;;2.75;2.08;;;;;;;;;;5114268;28;20223;-91
2023/05/03 13:04:55;;;;;;;2.95;2.05;;;;;;;;;;5113872;28;20716;-90
2023/05/03 13:07:23;;;;;;;2.97;2.53;;;;;;;;;;5114399;28;20251;-91
2023/05/03 13:09:50;;;;;;;3.33;2.05;;;;;;;;;;5113454;28;20245;-90
2023/05/03 13:12:19;;;;;;;3.40;2.05;;;;;;;;;;5114805;28;20211;-91
2023/05/03 13:14:46;;;;;;;2.75;2.00;;;;;;;;;;5114289;28;20732;-90
2023/05/03 13:17:14;;;;;;;3.03;1.95;;;;;;;;;;5113815;28;20706;-91
2023/05/03 13:19:43;;;;;;;2.83;2.20;;;;;;;;;;5113325;28;20192;-91
2023/05/03 13:22:10;;;;;;;3.70;2.35;;;;;;;;;;5113647;28;20204;-92
2023/05/03 13:24:37;;;;;;;5.35;2.63;;;;;;;;;;5113275;28;20293;-90
2023/05/03 13:27:04;;;;;;;3.13;2.40;;;;;;;;;;5115299;28;20239;-90
2023/05/03 13:29:32;;;;;;;1.95;1.85;;;;;;;;;;5115584;28;20204;-91
2023/05/03 13:31:59;;;;;;;5.13;2.70;;;;;;;;;;5113502;28;20207;-92
2023/05/03 13:34:28;;;;;;;4.68;2.72;;;;;;;;;;5114687;28;20211;-91
2023/05/03 13:36:55;;;;;;;2.67;2.00;;;;;;;;;;5114688;28;20690;-91
2023/05/03 13:39:22;;;;;;;4.05;2.55;;;;;;;;;;5116389;28;20684;-93
2023/05/03 13:41:49;;;;;;;3.00;2.15;;;;;;;;;;5115293;28;20242;-92
2023/05/03 13:44:18;;;;;;;2.40;1.90;;;;;;;;;;5116001;28;20204;-92
2023/05/03 13:46:45;;;;;;;4.13;2.03;;;;;;;;;;5114734;28;20232;-92
2023/05/03 13:49:12;;;;;;;3.85;2.83;;;;;;;;;;5115581;28;20210;-91
2023/05/03 13:51:40;;;;;;;2.42;1.77;;;;;;;;;;5115881;28;20751;-92
2023/05/03 13:54:08;;;;;;;3.58;2.13;;;;;;;;;;5115825;28;20208;-91
2023/05/03 13:56:35;;;;;;;4.18;2.28;;;;;;;;;;5113170;28;20231;-91
2023/05/03 13:59:03;;;;;;;2.17;1.98;;;;;;;;;;5114197;28;20207;-91
2023/05/03 14:01:30;;;;;;;2.30;2.10;;;;;;;;;;5114012;27;20288;-92
2023/05/03 14:03:57;;;;;;;2.13;1.90;;;;;;;;;;5115456;28;20728;-92
2023/05/03 14:06:24;;;;;;;4.07;1.80;;;;;;;;;;5114809;27;20239;-92
2023/05/03 14:08:55;;;;;;;4.28;2.10;;;;;;;;;;5115733;28;20293;-93
2023/05/03 14:11:23;;;;;;;3.28;2.13;;;;;;;;;;5116260;27;20236;-92
2023/05/03 14:13:51;;;;;;;5.00;2.22;;;;;;;;;;5116078;28;20207;-91
2023/05/03 14:16:19;;;;;;;3.78;1.98;;;;;;;;;;5114277;27;20243;-92
2023/05/03 14:18:47;;;;;;;3.05;1.92;;;;;;;;;;5115669;28;20203;-92
2023/05/03 14:21:15;;;;;;;2.85;1.90;;;;;;;;;;5117734;27;20227;-92
2023/05/03 14:23:43;;;;;;;3.20;1.95;;;;;;;;;;5121374;28;20262;-92
2023/05/03 14:26:12;;;;;;;4.28;2.15;;;;;;;;;;5116760;27;20242;-91
2023/05/03 14:28:39;;;;;;;2.28;2.08;;;;;;;;;;5118330;28;20223;-92
2023/05/03 14:31:07;;;;;;;5.07;1.85;;;;;;;;;;5115165;27;20235;-91
2023/05/03 14:33:35;;;;;;;2.03;1.92;;;;;;;;;;5098197;28;20554;-92
2023/05/03 14:36:02;;;;;;;4.15;2.22;;;;;;;;;;5097423;28;20286;-90
2023/05/03 14:38:29;;;;;;;3.35;2.10;;;;;;;;;;5098105;28;20203;-91
2023/05/03 14:40:56;;;;;;;4.50;2.17;;;;;;;;;;5097560;28;20229;-92
2023/05/03 14:43:25;;;;;;;2.17;1.98;;;;;;;;;;5112393;28;20222;-90
2023/05/03 14:45:52;;;;;;;5.05;2.47;;;;;;;;;;5111619;27;20240;-91